sensor_id;sensor_type;location;lat;lon;timestamp;temperature;humidity
15113;DHT22;7657;50.140;7.076;2023-05-14T00:02:07;13.70;99.90
15113;DHT22;7657;50.140;7.076;2023-05-14T00:04:35;13.60;99.90
15113;DHT22;7657;50.140;7.076;2023-05-14T00:07:02;13.60;99.90
15113;DHT22;7657;50.140;7.076;2023-05-14T00:09:29;13.60;99.90
15113;DHT22;7657;50.140;7.076;2023-05-14T00:11:56;13.60;99.90
15113;DHT22;7657;50.140;7.076;2023-05-14T00:14:23;13.60;99.90
15113;DHT22;7657;50.140;7.076;2023-05-14T00:16:50;13.60;99.90
15113;DHT22;7657;50.140;7.076;2023-05-14T00:19:16;13.60;99.90
15113;DHT22;7657;50.140;7.076;2023-05-14T00:21:46;13.50;99.90
15113;DHT22;7657;50.140;7.076;2023-05-14T00:24:13;13.60;99.90
15113;DHT22;7657;50.140;7.076;2023-05-14T00:26:40;13.60;99.90
15113;DHT22;7657;50.140;7.076;2023-05-14T00:29:07;13.60;99.90
15113;DHT22;7657;50.140;7.076;2023-05-14T00:31:34;13.60;99.90
15113;DHT22;7657;50.140;7.076;2023-05-14T00:34:01;13.50;99.90
15113;DHT22;7657;50.140;7.076;2023-05-14T00:36:28;13.50;99.90
15113;DHT22;7657;50.140;7.076;2023-05-14T00:38:57;13.50;99.90
15113;DHT22;7657;50.140;7.076;2023-05-14T00:41:23;13.50;99.90
15113;DHT22;7657;50.140;7.076;2023-05-14T00:43:50;13.40;99.90
15113;DHT22;7657;50.140;7.076;2023-05-14T00:46:17;13.40;99.90
15113;DHT22;7657;50.140;7.076;2023-05-14T00:48:45;13.40;99.90
15113;DHT22;7657;50.140;7.076;2023-05-14T00:51:12;13.40;99.90
15113;DHT22;7657;50.140;7.076;2023-05-14T00:53:39;13.40;99.90
15113;DHT22;7657;50.140;7.076;2023-05-14T00:56:08;13.30;99.90
15113;DHT22;7657;50.140;7.076;2023-05-14T00:58:35;13.30;99.90
15113;DHT22;7657;50.140;7.076;2023-05-14T01:01:02;13.20;99.90
15113;DHT22;7657;50.140;7.076;2023-05-14T01:03:30;13.00;99.90
15113;DHT22;7657;50.140;7.076;2023-05-14T01:06:02;12.90;99.90
15113;DHT22;7657;50.140;7.076;2023-05-14T01:08:35;13.00;99.90
15113;DHT22;7657;50.140;7.076;2023-05-14T01:11:12;13.10;99.90
15113;DHT22;7657;50.140;7.076;2023-05-14T01:13:57;13.00;99.90
15113;DHT22;7657;50.140;7.076;2023-05-14T01:16:27;13.00;99.90
15113;DHT22;7657;50.140;7.076;2023-05-14T01:18:56;12.90;99.90
15113;DHT22;7657;50.140;7.076;2023-05-14T01:21:32;12.90;99.90
15113;DHT22;7657;50.140;7.076;2023-05-14T01:24:00;12.90;99.90
15113;DHT22;7657;50.140;7.076;2023-05-14T01:26:27;13.00;99.90
15113;DHT22;7657;50.140;7.076;2023-05-14T01:28:59;13.10;99.90
15113;DHT22;7657;50.140;7.076;2023-05-14T01:31:30;13.00;99.90
15113;DHT22;7657;50.140;7.076;2023-05-14T01:34:00;13.00;99.90
15113;DHT22;7657;50.140;7.076;2023-05-14T01:36:28;13.00;99.90
15113;DHT22;7657;50.140;7.076;2023-05-14T01:38:56;12.90;99.90
15113;DHT22;7657;50.140;7.076;2023-05-14T01:41:24;12.90;99.90
15113;DHT22;7657;50.140;7.076;2023-05-14T01:43:51;12.90;99.90
15113;DHT22;7657;50.140;7.076;2023-05-14T01:46:19;12.90;99.90
15113;DHT22;7657;50.140;7.076;2023-05-14T01:48:46;12.90;99.90
15113;DHT22;7657;50.140;7.076;2023-05-14T01:51:13;12.90;99.90
15113;DHT22;7657;50.140;7.076;2023-05-14T01:53:41;12.90;99.90
15113;DHT22;7657;50.140;7.076;2023-05-14T01:56:08;12.90;99.90
15113;DHT22;7657;50.140;7.076;2023-05-14T01:58:35;12.90;99.90
15113;DHT22;7657;50.140;7.076;2023-05-14T02:01:02;12.80;99.90
15113;DHT22;7657;50.140;7.076;2023-05-14T02:03:28;12.80;99.90
15113;DHT22;7657;50.140;7.076;2023-05-14T02:05:55;12.80;99.90
15113;DHT22;7657;50.140;7.076;2023-05-14T02:08:22;12.70;99.90
15113;DHT22;7657;50.140;7.076;2023-05-14T02:10:51;12.80;99.90
15113;DHT22;7657;50.140;7.076;2023-05-14T02:13:18;12.80;99.90
15113;DHT22;7657;50.140;7.076;2023-05-14T02:15:45;12.70;99.90
15113;DHT22;7657;50.140;7.076;2023-05-14T02:18:12;12.60;99.90
15113;DHT22;7657;50.140;7.076;2023-05-14T02:20:39;12.60;99.90
15113;DHT22;7657;50.140;7.076;2023-05-14T02:23:05;12.60;99.90
15113;DHT22;7657;50.140;7.076;2023-05-14T02:25:32;12.60;99.90
15113;DHT22;7657;50.140;7.076;2023-05-14T02:28:01;12.60;99.90
15113;DHT22;7657;50.140;7.076;2023-05-14T02:30:27;12.60;99.90
15113;DHT22;7657;50.140;7.076;2023-05-14T02:32:56;12.50;99.90
15113;DHT22;7657;50.140;7.076;2023-05-14T02:35:23;12.50;99.90
15113;DHT22;7657;50.140;7.076;2023-05-14T02:37:49;12.50;99.90
15113;DHT22;7657;50.140;7.076;2023-05-14T02:40:17;12.50;99.90
15113;DHT22;7657;50.140;7.076;2023-05-14T02:42:43;12.50;99.90
15113;DHT22;7657;50.140;7.076;2023-05-14T02:45:12;12.50;99.90
15113;DHT22;7657;50.140;7.076;2023-05-14T02:47:39;12.60;99.90
15113;DHT22;7657;50.140;7.076;2023-05-14T02:50:07;12.50;99.90
15113;DHT22;7657;50.140;7.076;2023-05-14T02:52:34;12.50;99.90
15113;DHT22;7657;50.140;7.076;2023-05-14T02:55:01;12.40;99.90
15113;DHT22;7657;50.140;7.076;2023-05-14T02:57:28;12.30;99.90
15113;DHT22;7657;50.140;7.076;2023-05-14T02:59:55;12.10;99.90
15113;DHT22;7657;50.140;7.076;2023-05-14T03:02:23;12.00;99.90
15113;DHT22;7657;50.140;7.076;2023-05-14T03:04:50;11.80;99.90
15113;DHT22;7657;50.140;7.076;2023-05-14T03:07:17;11.70;99.90
15113;DHT22;7657;50.140;7.076;2023-05-14T03:09:43;11.80;99.90
15113;DHT22;7657;50.140;7.076;2023-05-14T03:12:10;11.90;99.90
15113;DHT22;7657;50.140;7.076;2023-05-14T03:14:38;12.00;99.90
15113;DHT22;7657;50.140;7.076;2023-05-14T03:17:05;12.00;99.90
15113;DHT22;7657;50.140;7.076;2023-05-14T03:19:33;12.00;99.90
15113;DHT22;7657;50.140;7.076;2023-05-14T03:22:00;12.10;99.90
15113;DHT22;7657;50.140;7.076;2023-05-14T03:24:27;12.00;99.90
15113;DHT22;7657;50.140;7.076;2023-05-14T03:26:54;12.00;99.90
15113;DHT22;7657;50.140;7.076;2023-05-14T03:29:21;12.00;99.90
15113;DHT22;7657;50.140;7.076;2023-05-14T03:31:48;12.00;99.90
15113;DHT22;7657;50.140;7.076;2023-05-14T03:34:15;12.10;99.90
15113;DHT22;7657;50.140;7.076;2023-05-14T03:36:43;12.10;99.90
15113;DHT22;7657;50.140;7.076;2023-05-14T03:39:10;12.10;99.90
15113;DHT22;7657;50.140;7.076;2023-05-14T03:41:40;12.10;99.90
15113;DHT22;7657;50.140;7.076;2023-05-14T03:44:06;12.10;99.90
15113;DHT22;7657;50.140;7.076;2023-05-14T03:46:33;12.10;99.90
15113;DHT22;7657;50.140;7.076;2023-05-14T03:49:00;12.10;99.90
15113;DHT22;7657;50.140;7.076;2023-05-14T03:51:27;12.10;99.90
15113;DHT22;7657;50.140;7.076;2023-05-14T03:53:55;12.00;99.90
15113;DHT22;7657;50.140;7.076;2023-05-14T03:56:23;12.00;99.90
15113;DHT22;7657;50.140;7.076;2023-05-14T03:58:50;12.00;99.90
15113;DHT22;7657;50.140;7.076;2023-05-14T04:01:17;12.10;99.90
15113;DHT22;7657;50.140;7.076;2023-05-14T04:03:44;12.00;99.90
15113;DHT22;7657;50.140;7.076;2023-05-14T04:06:11;12.00;99.90
15113;DHT22;7657;50.140;7.076;2023-05-14T04:08:38;12.00;99.90
15113;DHT22;7657;50.140;7.076;2023-05-14T04:11:06;12.00;99.90
15113;DHT22;7657;50.140;7.076;2023-05-14T04:13:33;12.00;99.90
15113;DHT22;7657;50.140;7.076;2023-05-14T04:16:00;12.00;99.90
15113;DHT22;7657;50.140;7.076;2023-05-14T04:18:27;11.90;99.90
15113;DHT22;7657;50.140;7.076;2023-05-14T04:20:54;11.90;99.90
15113;DHT22;7657;50.140;7.076;2023-05-14T04:23:21;11.90;99.90
15113;DHT22;7657;50.140;7.076;2023-05-14T04:25:48;11.90;99.90
15113;DHT22;7657;50.140;7.076;2023-05-14T04:28:16;11.90;99.90
15113;DHT22;7657;50.140;7.076;2023-05-14T04:30:43;11.90;99.90
15113;DHT22;7657;50.140;7.076;2023-05-14T04:33:10;11.90;99.90
15113;DHT22;7657;50.140;7.076;2023-05-14T04:35:38;11.80;99.90
15113;DHT22;7657;50.140;7.076;2023-05-14T04:38:04;11.90;99.90
15113;DHT22;7657;50.140;7.076;2023-05-14T04:40:31;11.80;99.90
15113;DHT22;7657;50.140;7.076;2023-05-14T04:42:58;11.80;99.90
15113;DHT22;7657;50.140;7.076;2023-05-14T04:45:26;11.80;99.90
15113;DHT22;7657;50.140;7.076;2023-05-14T04:47:53;11.70;99.90
15113;DHT22;7657;50.140;7.076;2023-05-14T04:50:20;11.70;99.90
15113;DHT22;7657;50.140;7.076;2023-05-14T04:52:47;11.70;99.90
15113;DHT22;7657;50.140;7.076;2023-05-14T04:55:14;11.90;99.90
15113;DHT22;7657;50.140;7.076;2023-05-14T04:57:41;12.00;99.90
15113;DHT22;7657;50.140;7.076;2023-05-14T05:00:09;12.00;99.90
15113;DHT22;7657;50.140;7.076;2023-05-14T05:02:37;12.10;99.90
15113;DHT22;7657;50.140;7.076;2023-05-14T05:05:05;12.10;99.90
15113;DHT22;7657;50.140;7.076;2023-05-14T05:07:32;12.20;99.90
15113;DHT22;7657;50.140;7.076;2023-05-14T05:09:58;12.20;99.90
15113;DHT22;7657;50.140;7.076;2023-05-14T05:12:26;12.20;99.90
15113;DHT22;7657;50.140;7.076;2023-05-14T05:14:54;12.20;99.90
15113;DHT22;7657;50.140;7.076;2023-05-14T05:17:21;12.20;99.90
15113;DHT22;7657;50.140;7.076;2023-05-14T05:19:50;12.20;99.90
15113;DHT22;7657;50.140;7.076;2023-05-14T05:22:18;12.30;99.90
15113;DHT22;7657;50.140;7.076;2023-05-14T05:24:45;12.40;99.90
15113;DHT22;7657;50.140;7.076;2023-05-14T05:27:12;12.40;99.90
15113;DHT22;7657;50.140;7.076;2023-05-14T05:29:39;12.40;99.90
15113;DHT22;7657;50.140;7.076;2023-05-14T05:32:06;12.50;99.90
15113;DHT22;7657;50.140;7.076;2023-05-14T05:34:33;12.50;99.90
15113;DHT22;7657;50.140;7.076;2023-05-14T05:37:02;12.60;99.90
15113;DHT22;7657;50.140;7.076;2023-05-14T05:39:30;12.60;99.90
15113;DHT22;7657;50.140;7.076;2023-05-14T05:41:59;12.60;99.90
15113;DHT22;7657;50.140;7.076;2023-05-14T05:44:26;12.70;99.90
15113;DHT22;7657;50.140;7.076;2023-05-14T05:46:53;12.70;99.90
15113;DHT22;7657;50.140;7.076;2023-05-14T05:49:21;12.70;99.90
15113;DHT22;7657;50.140;7.076;2023-05-14T05:51:48;12.80;99.90
15113;DHT22;7657;50.140;7.076;2023-05-14T05:54:16;12.80;99.90
15113;DHT22;7657;50.140;7.076;2023-05-14T05:56:43;12.80;99.90
15113;DHT22;7657;50.140;7.076;2023-05-14T05:59:10;12.80;99.90
15113;DHT22;7657;50.140;7.076;2023-05-14T06:01:37;12.80;99.90
15113;DHT22;7657;50.140;7.076;2023-05-14T06:04:05;12.90;99.90
15113;DHT22;7657;50.140;7.076;2023-05-14T06:06:32;12.80;99.90
15113;DHT22;7657;50.140;7.076;2023-05-14T06:08:59;12.90;99.90
15113;DHT22;7657;50.140;7.076;2023-05-14T06:11:27;12.80;99.90
15113;DHT22;7657;50.140;7.076;2023-05-14T06:13:54;12.80;99.90
15113;DHT22;7657;50.140;7.076;2023-05-14T06:16:21;12.80;99.90
15113;DHT22;7657;50.140;7.076;2023-05-14T06:18:48;12.90;99.90
15113;DHT22;7657;50.140;7.076;2023-05-14T06:21:16;12.90;99.90
15113;DHT22;7657;50.140;7.076;2023-05-14T06:23:43;13.00;99.90
15113;DHT22;7657;50.140;7.076;2023-05-14T06:26:10;13.00;99.90
15113;DHT22;7657;50.140;7.076;2023-05-14T06:28:39;13.00;99.90
15113;DHT22;7657;50.140;7.076;2023-05-14T06:31:06;12.90;99.90
15113;DHT22;7657;50.140;7.076;2023-05-14T06:33:32;12.90;99.90
15113;DHT22;7657;50.140;7.076;2023-05-14T06:36:03;12.80;99.90
15113;DHT22;7657;50.140;7.076;2023-05-14T06:38:30;12.90;99.90
15113;DHT22;7657;50.140;7.076;2023-05-14T06:40:57;12.90;99.90
15113;DHT22;7657;50.140;7.076;2023-05-14T06:43:24;12.90;99.90
15113;DHT22;7657;50.140;7.076;2023-05-14T06:45:52;12.90;99.90
15113;DHT22;7657;50.140;7.076;2023-05-14T06:48:19;13.00;99.90
15113;DHT22;7657;50.140;7.076;2023-05-14T06:50:47;13.00;99.90
15113;DHT22;7657;50.140;7.076;2023-05-14T06:53:14;13.10;99.90
15113;DHT22;7657;50.140;7.076;2023-05-14T06:55:41;13.10;99.90
15113;DHT22;7657;50.140;7.076;2023-05-14T06:58:08;13.10;99.90
15113;DHT22;7657;50.140;7.076;2023-05-14T07:00:35;13.10;99.90
15113;DHT22;7657;50.140;7.076;2023-05-14T07:03:03;13.20;99.90
15113;DHT22;7657;50.140;7.076;2023-05-14T07:05:30;13.30;99.90
15113;DHT22;7657;50.140;7.076;2023-05-14T07:07:57;13.30;99.90
15113;DHT22;7657;50.140;7.076;2023-05-14T07:10:24;13.40;99.90
15113;DHT22;7657;50.140;7.076;2023-05-14T07:12:51;13.40;99.90
15113;DHT22;7657;50.140;7.076;2023-05-14T07:15:18;13.40;99.90
15113;DHT22;7657;50.140;7.076;2023-05-14T07:17:45;13.40;99.90
15113;DHT22;7657;50.140;7.076;2023-05-14T07:20:13;13.50;99.90
15113;DHT22;7657;50.140;7.076;2023-05-14T07:22:40;13.60;99.90
15113;DHT22;7657;50.140;7.076;2023-05-14T07:25:08;13.50;99.90
15113;DHT22;7657;50.140;7.076;2023-05-14T07:27:35;13.60;99.90
15113;DHT22;7657;50.140;7.076;2023-05-14T07:30:02;13.60;99.90
15113;DHT22;7657;50.140;7.076;2023-05-14T07:32:28;13.60;99.90
15113;DHT22;7657;50.140;7.076;2023-05-14T07:34:55;13.50;99.90
15113;DHT22;7657;50.140;7.076;2023-05-14T07:37:24;13.50;99.90
15113;DHT22;7657;50.140;7.076;2023-05-14T07:39:51;13.60;99.90
15113;DHT22;7657;50.140;7.076;2023-05-14T07:42:18;13.50;99.90
15113;DHT22;7657;50.140;7.076;2023-05-14T07:44:45;13.60;99.90
15113;DHT22;7657;50.140;7.076;2023-05-14T07:47:12;13.70;99.90
15113;DHT22;7657;50.140;7.076;2023-05-14T07:49:39;13.70;99.90
15113;DHT22;7657;50.140;7.076;2023-05-14T07:52:06;13.80;99.90
15113;DHT22;7657;50.140;7.076;2023-05-14T07:54:34;13.80;99.90
15113;DHT22;7657;50.140;7.076;2023-05-14T07:57:02;13.90;99.90
15113;DHT22;7657;50.140;7.076;2023-05-14T07:59:28;14.00;99.90
15113;DHT22;7657;50.140;7.076;2023-05-14T08:01:55;13.90;99.90
15113;DHT22;7657;50.140;7.076;2023-05-14T08:04:22;14.00;99.90
15113;DHT22;7657;50.140;7.076;2023-05-14T08:06:49;14.00;99.90
15113;DHT22;7657;50.140;7.076;2023-05-14T08:09:16;14.00;99.90
15113;DHT22;7657;50.140;7.076;2023-05-14T08:11:44;14.10;99.90
15113;DHT22;7657;50.140;7.076;2023-05-14T08:14:11;14.10;99.90
15113;DHT22;7657;50.140;7.076;2023-05-14T08:16:38;14.10;99.90
15113;DHT22;7657;50.140;7.076;2023-05-14T08:19:05;14.20;99.90
15113;DHT22;7657;50.140;7.076;2023-05-14T08:21:32;14.20;99.90
15113;DHT22;7657;50.140;7.076;2023-05-14T08:23:59;14.20;99.90
15113;DHT22;7657;50.140;7.076;2023-05-14T08:26:26;14.30;99.90
15113;DHT22;7657;50.140;7.076;2023-05-14T08:28:54;14.20;99.90
15113;DHT22;7657;50.140;7.076;2023-05-14T08:31:21;14.20;99.90
15113;DHT22;7657;50.140;7.076;2023-05-14T08:33:48;14.20;99.90
15113;DHT22;7657;50.140;7.076;2023-05-14T08:36:15;14.20;99.90
15113;DHT22;7657;50.140;7.076;2023-05-14T08:38:42;14.30;99.90
15113;DHT22;7657;50.140;7.076;2023-05-14T08:41:10;14.30;99.90
15113;DHT22;7657;50.140;7.076;2023-05-14T08:43:44;14.30;99.90
15113;DHT22;7657;50.140;7.076;2023-05-14T08:46:13;14.30;99.90
15113;DHT22;7657;50.140;7.076;2023-05-14T08:48:42;14.20;99.90
15113;DHT22;7657;50.140;7.076;2023-05-14T08:51:13;14.30;99.90
15113;DHT22;7657;50.140;7.076;2023-05-14T08:53:40;14.20;99.90
15113;DHT22;7657;50.140;7.076;2023-05-14T08:56:08;14.20;99.90
15113;DHT22;7657;50.140;7.076;2023-05-14T08:58:37;14.30;99.90
15113;DHT22;7657;50.140;7.076;2023-05-14T09:01:04;14.30;99.90
15113;DHT22;7657;50.140;7.076;2023-05-14T09:03:32;14.30;99.90
15113;DHT22;7657;50.140;7.076;2023-05-14T09:06:01;14.20;99.90
15113;DHT22;7657;50.140;7.076;2023-05-14T09:08:28;14.20;99.90
15113;DHT22;7657;50.140;7.076;2023-05-14T09:10:55;14.30;99.90
15113;DHT22;7657;50.140;7.076;2023-05-14T09:13:22;14.30;99.90
15113;DHT22;7657;50.140;7.076;2023-05-14T09:15:49;14.40;99.90
15113;DHT22;7657;50.140;7.076;2023-05-14T09:18:16;14.50;99.90
15113;DHT22;7657;50.140;7.076;2023-05-14T09:20:46;14.50;99.90
15113;DHT22;7657;50.140;7.076;2023-05-14T09:23:13;14.50;99.90
15113;DHT22;7657;50.140;7.076;2023-05-14T09:25:40;14.50;99.90
15113;DHT22;7657;50.140;7.076;2023-05-14T09:28:08;14.60;99.90
15113;DHT22;7657;50.140;7.076;2023-05-14T09:30:35;14.70;99.90
15113;DHT22;7657;50.140;7.076;2023-05-14T09:33:02;14.80;99.90
15113;DHT22;7657;50.140;7.076;2023-05-14T09:35:29;14.90;99.90
15113;DHT22;7657;50.140;7.076;2023-05-14T09:37:58;15.00;99.90
15113;DHT22;7657;50.140;7.076;2023-05-14T09:40:25;15.00;99.90
15113;DHT22;7657;50.140;7.076;2023-05-14T09:42:52;15.10;99.90
15113;DHT22;7657;50.140;7.076;2023-05-14T09:45:19;15.20;99.90
15113;DHT22;7657;50.140;7.076;2023-05-14T09:47:46;15.20;99.90
15113;DHT22;7657;50.140;7.076;2023-05-14T09:50:13;15.30;99.90
15113;DHT22;7657;50.140;7.076;2023-05-14T09:52:40;15.30;99.90
15113;DHT22;7657;50.140;7.076;2023-05-14T09:55:08;15.30;99.90
15113;DHT22;7657;50.140;7.076;2023-05-14T09:57:35;15.40;99.90
15113;DHT22;7657;50.140;7.076;2023-05-14T10:00:03;15.40;99.90
15113;DHT22;7657;50.140;7.076;2023-05-14T10:02:34;15.40;99.90
15113;DHT22;7657;50.140;7.076;2023-05-14T10:05:04;15.50;99.90
15113;DHT22;7657;50.140;7.076;2023-05-14T10:07:36;15.50;99.90
15113;DHT22;7657;50.140;7.076;2023-05-14T10:10:09;15.60;99.90
15113;DHT22;7657;50.140;7.076;2023-05-14T10:12:38;15.70;99.90
15113;DHT22;7657;50.140;7.076;2023-05-14T10:15:12;15.70;99.90
15113;DHT22;7657;50.140;7.076;2023-05-14T10:17:44;15.70;99.90
15113;DHT22;7657;50.140;7.076;2023-05-14T10:20:14;15.80;99.90
15113;DHT22;7657;50.140;7.076;2023-05-14T10:22:42;15.80;99.90
15113;DHT22;7657;50.140;7.076;2023-05-14T10:25:10;15.90;99.90
15113;DHT22;7657;50.140;7.076;2023-05-14T10:27:38;15.80;99.90
15113;DHT22;7657;50.140;7.076;2023-05-14T10:30:09;15.80;99.90
15113;DHT22;7657;50.140;7.076;2023-05-14T10:32:37;15.80;99.90
15113;DHT22;7657;50.140;7.076;2023-05-14T10:35:15;15.70;99.90
15113;DHT22;7657;50.140;7.076;2023-05-14T10:37:43;15.70;99.90
15113;DHT22;7657;50.140;7.076;2023-05-14T10:40:13;15.70;99.90
15113;DHT22;7657;50.140;7.076;2023-05-14T10:42:40;15.70;99.90
15113;DHT22;7657;50.140;7.076;2023-05-14T10:45:10;15.80;99.90
15113;DHT22;7657;50.140;7.076;2023-05-14T10:47:38;15.90;99.90
15113;DHT22;7657;50.140;7.076;2023-05-14T10:50:07;16.00;99.90
15113;DHT22;7657;50.140;7.076;2023-05-14T10:52:35;16.00;99.90
15113;DHT22;7657;50.140;7.076;2023-05-14T10:55:03;16.10;99.90
15113;DHT22;7657;50.140;7.076;2023-05-14T10:57:35;16.20;99.90
15113;DHT22;7657;50.140;7.076;2023-05-14T11:00:02;16.30;99.90
15113;DHT22;7657;50.140;7.076;2023-05-14T11:02:33;16.30;99.90
15113;DHT22;7657;50.140;7.076;2023-05-14T11:05:02;16.40;99.90
15113;DHT22;7657;50.140;7.076;2023-05-14T11:07:31;16.40;99.90
15113;DHT22;7657;50.140;7.076;2023-05-14T11:10:01;16.40;99.90
15113;DHT22;7657;50.140;7.076;2023-05-14T11:12:28;16.50;99.90
15113;DHT22;7657;50.140;7.076;2023-05-14T11:14:58;16.40;99.90
15113;DHT22;7657;50.140;7.076;2023-05-14T11:17:27;16.50;99.90
15113;DHT22;7657;50.140;7.076;2023-05-14T11:19:55;16.60;99.90
15113;DHT22;7657;50.140;7.076;2023-05-14T11:22:22;16.70;99.90
15113;DHT22;7657;50.140;7.076;2023-05-14T11:24:50;16.60;99.90
15113;DHT22;7657;50.140;7.076;2023-05-14T11:27:17;16.70;99.90
15113;DHT22;7657;50.140;7.076;2023-05-14T11:29:45;16.80;99.90
15113;DHT22;7657;50.140;7.076;2023-05-14T11:32:14;16.80;99.90
15113;DHT22;7657;50.140;7.076;2023-05-14T11:34:42;16.80;99.90
15113;DHT22;7657;50.140;7.076;2023-05-14T11:37:10;16.90;99.90
15113;DHT22;7657;50.140;7.076;2023-05-14T11:39:38;16.90;99.90
15113;DHT22;7657;50.140;7.076;2023-05-14T11:42:10;16.90;99.90
15113;DHT22;7657;50.140;7.076;2023-05-14T11:44:39;17.00;99.90
15113;DHT22;7657;50.140;7.076;2023-05-14T11:47:07;16.90;99.90
15113;DHT22;7657;50.140;7.076;2023-05-14T11:49:35;16.90;99.90
15113;DHT22;7657;50.140;7.076;2023-05-14T11:52:04;16.80;99.90
15113;DHT22;7657;50.140;7.076;2023-05-14T11:54:32;16.80;99.90
15113;DHT22;7657;50.140;7.076;2023-05-14T11:57:02;16.90;99.90
15113;DHT22;7657;50.140;7.076;2023-05-14T11:59:33;17.00;99.90
15113;DHT22;7657;50.140;7.076;2023-05-14T12:02:01;17.10;99.90
15113;DHT22;7657;50.140;7.076;2023-05-14T12:04:28;17.10;99.90
15113;DHT22;7657;50.140;7.076;2023-05-14T12:06:58;17.10;99.90
15113;DHT22;7657;50.140;7.076;2023-05-14T12:09:25;17.10;99.90
15113;DHT22;7657;50.140;7.076;2023-05-14T12:11:52;17.20;99.90
15113;DHT22;7657;50.140;7.076;2023-05-14T12:14:21;17.40;99.90
15113;DHT22;7657;50.140;7.076;2023-05-14T12:16:49;17.50;99.90
15113;DHT22;7657;50.140;7.076;2023-05-14T12:19:17;17.50;99.90
15113;DHT22;7657;50.140;7.076;2023-05-14T12:21:45;17.60;99.90
15113;DHT22;7657;50.140;7.076;2023-05-14T12:24:16;17.70;99.90
15113;DHT22;7657;50.140;7.076;2023-05-14T12:26:43;17.80;99.90
15113;DHT22;7657;50.140;7.076;2023-05-14T12:29:12;17.90;99.90
15113;DHT22;7657;50.140;7.076;2023-05-14T12:31:45;18.10;99.90
15113;DHT22;7657;50.140;7.076;2023-05-14T12:34:12;18.30;99.90
15113;DHT22;7657;50.140;7.076;2023-05-14T12:36:39;18.40;99.90
15113;DHT22;7657;50.140;7.076;2023-05-14T12:39:07;18.50;99.90
15113;DHT22;7657;50.140;7.076;2023-05-14T12:41:35;18.50;99.90
15113;DHT22;7657;50.140;7.076;2023-05-14T12:44:03;18.60;99.90
15113;DHT22;7657;50.140;7.076;2023-05-14T12:46:31;18.70;99.90
15113;DHT22;7657;50.140;7.076;2023-05-14T12:48:58;18.90;99.90
15113;DHT22;7657;50.140;7.076;2023-05-14T12:51:25;19.00;99.90
15113;DHT22;7657;50.140;7.076;2023-05-14T12:53:52;19.20;99.90
15113;DHT22;7657;50.140;7.076;2023-05-14T12:56:19;19.50;99.90
15113;DHT22;7657;50.140;7.076;2023-05-14T12:58:53;19.60;99.90
15113;DHT22;7657;50.140;7.076;2023-05-14T13:01:21;19.70;99.90
15113;DHT22;7657;50.140;7.076;2023-05-14T13:03:48;19.70;99.90
15113;DHT22;7657;50.140;7.076;2023-05-14T13:06:15;19.70;99.90
15113;DHT22;7657;50.140;7.076;2023-05-14T13:08:42;20.10;99.90
15113;DHT22;7657;50.140;7.076;2023-05-14T13:11:09;20.20;99.90
15113;DHT22;7657;50.140;7.076;2023-05-14T13:13:36;19.90;99.90
15113;DHT22;7657;50.140;7.076;2023-05-14T13:16:04;20.10;99.90
15113;DHT22;7657;50.140;7.076;2023-05-14T13:18:31;20.40;99.90
15113;DHT22;7657;50.140;7.076;2023-05-14T13:20:58;20.50;99.90
15113;DHT22;7657;50.140;7.076;2023-05-14T13:23:28;20.80;99.90
15113;DHT22;7657;50.140;7.076;2023-05-14T13:25:55;21.00;99.90
15113;DHT22;7657;50.140;7.076;2023-05-14T13:28:22;21.00;99.90
15113;DHT22;7657;50.140;7.076;2023-05-14T13:31:05;21.00;99.90
15113;DHT22;7657;50.140;7.076;2023-05-14T13:33:36;21.40;99.90
15113;DHT22;7657;50.140;7.076;2023-05-14T13:36:03;21.40;99.90
15113;DHT22;7657;50.140;7.076;2023-05-14T13:38:30;21.40;99.90
15113;DHT22;7657;50.140;7.076;2023-05-14T13:40:57;21.30;99.90
15113;DHT22;7657;50.140;7.076;2023-05-14T13:43:27;21.40;99.90
15113;DHT22;7657;50.140;7.076;2023-05-14T13:45:54;21.50;99.90
15113;DHT22;7657;50.140;7.076;2023-05-14T13:48:23;21.80;99.90
15113;DHT22;7657;50.140;7.076;2023-05-14T13:50:50;22.10;99.90
15113;DHT22;7657;50.140;7.076;2023-05-14T13:53:17;22.30;99.90
15113;DHT22;7657;50.140;7.076;2023-05-14T13:55:44;22.60;99.90
15113;DHT22;7657;50.140;7.076;2023-05-14T13:58:12;22.40;99.90
15113;DHT22;7657;50.140;7.076;2023-05-14T14:00:39;21.80;99.90
15113;DHT22;7657;50.140;7.076;2023-05-14T14:03:06;21.50;99.90
15113;DHT22;7657;50.140;7.076;2023-05-14T14:05:35;21.50;99.90
15113;DHT22;7657;50.140;7.076;2023-05-14T14:08:02;21.30;99.90
15113;DHT22;7657;50.140;7.076;2023-05-14T14:10:29;21.50;99.90
15113;DHT22;7657;50.140;7.076;2023-05-14T14:12:56;21.20;99.90
15113;DHT22;7657;50.140;7.076;2023-05-14T14:15:23;21.10;99.90
15113;DHT22;7657;50.140;7.076;2023-05-14T14:17:50;20.80;99.90
15113;DHT22;7657;50.140;7.076;2023-05-14T14:20:17;20.70;99.90
15113;DHT22;7657;50.140;7.076;2023-05-14T14:22:45;20.60;99.90
15113;DHT22;7657;50.140;7.076;2023-05-14T14:25:12;20.90;99.90
15113;DHT22;7657;50.140;7.076;2023-05-14T14:27:39;20.80;99.90
15113;DHT22;7657;50.140;7.076;2023-05-14T14:30:09;20.70;99.90
15113;DHT22;7657;50.140;7.076;2023-05-14T14:32:40;20.60;99.90
15113;DHT22;7657;50.140;7.076;2023-05-14T14:35:09;20.60;99.90
15113;DHT22;7657;50.140;7.076;2023-05-14T14:37:36;20.50;99.90
15113;DHT22;7657;50.140;7.076;2023-05-14T14:40:06;20.40;99.90
15113;DHT22;7657;50.140;7.076;2023-05-14T14:42:34;20.60;99.90
15113;DHT22;7657;50.140;7.076;2023-05-14T14:45:01;20.70;99.90
15113;DHT22;7657;50.140;7.076;2023-05-14T14:47:28;21.20;99.90
15113;DHT22;7657;50.140;7.076;2023-05-14T14:49:55;21.30;99.90
15113;DHT22;7657;50.140;7.076;2023-05-14T14:52:22;21.40;99.90
15113;DHT22;7657;50.140;7.076;2023-05-14T14:54:49;21.00;99.90
15113;DHT22;7657;50.140;7.076;2023-05-14T14:57:18;20.60;99.90
15113;DHT22;7657;50.140;7.076;2023-05-14T14:59:45;20.20;99.90
15113;DHT22;7657;50.140;7.076;2023-05-14T15:02:12;19.90;99.90
15113;DHT22;7657;50.140;7.076;2023-05-14T15:04:39;19.70;99.90
15113;DHT22;7657;50.140;7.076;2023-05-14T15:07:05;19.60;99.90
15113;DHT22;7657;50.140;7.076;2023-05-14T15:09:32;19.60;99.90
15113;DHT22;7657;50.140;7.076;2023-05-14T15:11:59;19.60;99.90
15113;DHT22;7657;50.140;7.076;2023-05-14T15:14:27;19.60;99.90
15113;DHT22;7657;50.140;7.076;2023-05-14T15:16:54;19.70;99.90
15113;DHT22;7657;50.140;7.076;2023-05-14T15:19:21;20.00;99.90
15113;DHT22;7657;50.140;7.076;2023-05-14T15:21:48;20.80;99.90
15113;DHT22;7657;50.140;7.076;2023-05-14T15:24:15;20.70;99.90
15113;DHT22;7657;50.140;7.076;2023-05-14T15:26:42;20.50;99.90
15113;DHT22;7657;50.140;7.076;2023-05-14T15:29:09;20.60;99.90
15113;DHT22;7657;50.140;7.076;2023-05-14T15:31:37;20.50;99.90
15113;DHT22;7657;50.140;7.076;2023-05-14T15:34:05;20.10;99.90
15113;DHT22;7657;50.140;7.076;2023-05-14T15:36:32;19.90;99.90
15113;DHT22;7657;50.140;7.076;2023-05-14T15:38:59;19.90;99.90
15113;DHT22;7657;50.140;7.076;2023-05-14T15:41:26;19.70;99.90
15113;DHT22;7657;50.140;7.076;2023-05-14T15:43:53;19.70;99.90
15113;DHT22;7657;50.140;7.076;2023-05-14T15:46:20;19.60;99.90
15113;DHT22;7657;50.140;7.076;2023-05-14T15:48:49;19.30;99.90